sim
Sign-in with your pilot id or email,
or register
Callsign
Passwort

Schedule Details

Flight Number: DLH2116
Departure: Munich Airport (EDDM) at 19:40
Arrival: Bremen Airport (EDDW) at 20:55
Route: Lufthansa Passenger Schedule. Enter filed route here before submitting Pirep.

Weather Information
Getting current METAR information for EDDM 261650Z 25021KT 9999 -RA SCT023 OVC029 07/04 Q1000 NOSIG
Getting current METAR information for EDDW 261650Z 30008KT 9999 -RA BKN028 12/10 Q0996 TEMPO RA

Schedule Frequency

Route Map